Time;durP1;ratioP1;P1;durP2;ratioP2;P2;SDS_P1;SDS_P2;PMS_P1;PMS_P2;Temp;Humidity;BMP_temperature;BMP_pressure;BME280_temperature;BME280_humidity;BME280_pressure;Samples;Min_cycle;Max_cycle;Signal;HPM_P1;HPM_P2
2023/03/28 00:01:39;;;;;;;1999.90;999.90;;;2.20;99.90;;;;;;5064087;28;20040;-70
2023/03/28 00:04:04;;;;;;;1999.90;999.90;;;2.10;99.90;;;;;;5063776;28;20164;-70
2023/03/28 00:06:31;;;;;;;1999.90;999.90;;;2.10;99.90;;;;;;5063677;28;20106;-70
2023/03/28 00:08:57;;;;;;;1999.90;999.90;;;2.00;99.90;;;;;;5062259;28;20044;-70
2023/03/28 00:11:23;;;;;;;1999.90;999.90;;;2.00;99.90;;;;;;5064960;28;20068;-70
2023/03/28 00:13:59;;;;;;;1999.90;999.90;;;1.90;99.90;;;;;;5064851;28;20132;-70
2023/03/28 00:16:31;;;;;;;1999.90;999.90;;;1.80;99.90;;;;;;5045611;28;20454;-70
2023/03/28 00:19:01;;;;;;;1999.90;999.90;;;1.80;99.90;;;;;;5064732;28;20362;-70
2023/03/28 00:21:29;;;;;;;1999.90;999.90;;;1.70;99.90;;;;;;5064128;28;20421;-70
2023/03/28 00:24:00;;;;;;;1999.90;999.90;;;1.70;99.90;;;;;;5045462;28;20124;-70
2023/03/28 00:26:28;;;;;;;1999.90;999.90;;;1.60;99.90;;;;;;5064265;28;20128;-69
2023/03/28 00:28:54;;;;;;;1999.90;999.90;;;1.60;99.90;;;;;;5068923;28;20036;-70
2023/03/28 00:31:21;;;;;;;1999.90;999.90;;;1.60;99.90;;;;;;5067006;28;20087;-70
2023/03/28 00:33:47;;;;;;;1999.90;999.90;;;1.60;99.90;;;;;;5049831;28;20036;-70
2023/03/28 00:36:21;;;;;;;1999.90;999.90;;;1.60;99.90;;;;;;5068909;28;20458;-69
2023/03/28 00:38:51;;;;;;;;;;;1.60;99.90;;;;;;5065659;28;20032;-70
2023/03/28 00:41:17;;;;;;;1999.90;999.90;;;1.50;99.90;;;;;;5049610;28;19950;-70
2023/03/28 00:43:44;;;;;;;1999.90;999.90;;;1.40;99.90;;;;;;5070411;28;20072;-69
2023/03/28 00:46:23;;;;;;;1999.90;999.90;;;1.40;99.90;;;;;;5067569;28;20037;-70
2023/03/28 00:49:12;;;;;;;1999.90;999.90;;;1.30;99.90;;;;;;5067014;28;20063;-70
2023/03/28 00:51:43;;;;;;;1999.90;999.90;;;1.30;99.90;;;;;;5063836;28;20149;-70
2023/03/28 00:54:13;;;;;;;1999.90;999.90;;;1.20;99.90;;;;;;5068130;28;20048;-70
2023/03/28 00:56:43;;;;;;;1999.90;999.90;;;1.20;99.90;;;;;;5050380;28;20040;-69
2023/03/28 00:59:12;;;;;;;1999.90;999.90;;;1.20;99.90;;;;;;5050649;28;20044;-69
2023/03/28 01:01:38;;;;;;;1999.90;999.90;;;1.10;99.90;;;;;;5050199;28;20051;-70
2023/03/28 01:04:05;;;;;;;1999.90;999.90;;;1.10;99.90;;;;;;5066043;28;20412;-70
2023/03/28 01:06:36;;;;;;;1999.90;999.90;;;1.00;99.90;;;;;;5067964;28;20418;-70
2023/03/28 01:09:05;;;;;;;1999.90;999.90;;;0.90;99.90;;;;;;5067512;28;20040;-70
2023/03/28 01:11:34;;;;;;;1999.90;999.90;;;0.80;99.90;;;;;;5065998;28;20413;-70
2023/03/28 01:14:03;;;;;;;1999.90;999.90;;;0.70;99.90;;;;;;5068998;28;20048;-69
2023/03/28 01:16:32;;;;;;;1999.90;999.90;;;0.60;99.90;;;;;;5050129;28;20123;-69
2023/03/28 01:19:02;;;;;;;1999.90;999.90;;;0.50;99.90;;;;;;5065446;28;20028;-69
2023/03/28 01:21:47;;;;;;;1999.90;999.90;;;0.40;99.90;;;;;;5065675;28;20093;-70
2023/03/28 01:24:47;;;;;;;1999.90;999.90;;;0.30;99.90;;;;;;5048888;28;20059;-69
2023/03/28 01:27:50;;;;;;;1999.90;999.90;;;0.20;99.90;;;;;;5063660;28;20067;-70
2023/03/28 01:30:28;;;;;;;1999.90;999.90;;;0.10;99.90;;;;;;5056982;28;20408;-69
2023/03/28 01:33:12;;;;;;;1999.90;999.90;;;0.10;99.90;;;;;;5048907;28;20142;-69
2023/03/28 01:35:44;;;;;;;1999.90;999.90;;;0.00;99.90;;;;;;5065481;28;20073;-70
2023/03/28 01:38:39;;;;;;;1999.90;999.90;;;0.00;99.90;;;;;;5048858;28;20071;-70
2023/03/28 01:41:18;;;;;;;1999.90;999.90;;;0.00;99.90;;;;;;5064856;28;20067;-70
2023/03/28 01:44:16;;;;;;;1999.90;999.90;;;0.00;99.90;;;;;;5047762;28;20045;-70
2023/03/28 01:46:50;;;;;;;1999.90;999.90;;;0.00;99.90;;;;;;5030349;28;20048;-70
2023/03/28 01:49:25;;;;;;;1999.90;999.90;;;0.00;99.90;;;;;;5065033;28;20059;-70
2023/03/28 01:51:59;;;;;;;1999.90;999.90;;;0.10;99.90;;;;;;5066459;28;20396;-70
2023/03/28 01:54:30;;;;;;;;;;;0.10;99.90;;;;;;5049687;28;20442;-70
2023/03/28 01:56:56;;;;;;;1999.90;999.90;;;0.10;99.90;;;;;;5064476;28;19945;-69
2023/03/28 01:59:45;;;;;;;1999.90;999.90;;;0.10;99.90;;;;;;5065767;28;20044;-69
2023/03/28 02:02:26;;;;;;;1999.90;999.90;;;0.10;99.90;;;;;;5063298;28;20119;-69
2023/03/28 02:04:54;;;;;;;1999.90;999.90;;;0.00;99.90;;;;;;5064257;28;20040;-70
2023/03/28 02:07:23;;;;;;;1999.90;999.90;;;0.00;99.90;;;;;;5065225;28;20462;-70
2023/03/28 02:09:51;;;;;;;1999.90;999.90;;;-0.10;99.90;;;;;;5038075;28;20036;-70
2023/03/28 02:12:23;;;;;;;1999.90;999.90;;;-0.10;99.90;;;;;;5065386;28;20071;-71
2023/03/28 02:14:52;;;;;;;1999.90;999.90;;;-0.20;99.90;;;;;;5067112;28;20045;-69
2023/03/28 02:17:20;;;;;;;1999.90;999.90;;;-0.20;99.90;;;;;;5048103;28;20528;-70
2023/03/28 02:19:54;;;;;;;1999.90;999.90;;;-0.20;99.90;;;;;;5024307;28;1105215;-69
2023/03/28 02:22:37;;;;;;;1999.90;999.90;;;-0.10;99.90;;;;;;5061753;28;20063;-70
2023/03/28 02:25:03;;;;;;;1999.90;999.90;;;0.00;99.90;;;;;;5066208;28;20168;-70
2023/03/28 02:27:30;;;;;;;1999.90;999.90;;;0.00;99.90;;;;;;5064351;28;20044;-70
2023/03/28 02:29:56;;;;;;;1999.90;999.90;;;0.00;99.90;;;;;;5064366;28;20037;-70
2023/03/28 02:32:22;;;;;;;1999.90;999.90;;;0.00;99.90;;;;;;5064715;28;20047;-70
2023/03/28 02:34:50;;;;;;;1999.90;999.90;;;-0.10;99.90;;;;;;5064992;28;20036;-70
2023/03/28 02:37:47;;;;;;;1999.90;999.90;;;-0.10;99.90;;;;;;5066132;28;20083;-70
2023/03/28 02:40:38;;;;;;;1999.90;999.90;;;-0.20;99.90;;;;;;5064107;28;20133;-69
2023/03/28 02:43:18;;;;;;;1999.90;999.90;;;-0.30;99.90;;;;;;5048241;28;20040;-70
2023/03/28 02:46:18;;;;;;;1999.90;999.90;;;-0.30;99.90;;;;;;5065493;28;20040;-69
2023/03/28 02:48:44;;;;;;;1999.90;999.90;;;-0.40;99.90;;;;;;5048001;28;20040;-69
2023/03/28 02:51:39;;;;;;;1999.90;999.90;;;-0.40;99.90;;;;;;5066780;28;20571;-69
2023/03/28 02:54:26;;;;;;;1999.90;999.90;;;-0.40;99.90;;;;;;5064461;28;20137;-69
2023/03/28 02:57:11;;;;;;;1999.90;999.90;;;-0.40;99.90;;;;;;5063433;28;20496;-69
2023/03/28 02:59:51;;;;;;;1999.90;999.90;;;-0.50;99.90;;;;;;5047476;28;20044;-69
2023/03/28 03:02:20;;;;;;;1999.90;999.90;;;-0.60;99.90;;;;;;5048486;28;20048;-69
2023/03/28 03:04:46;;;;;;;1999.90;999.90;;;-0.60;99.90;;;;;;5061843;28;20066;-69
2023/03/28 03:07:12;;;;;;;1999.90;999.90;;;-0.60;99.90;;;;;;5063341;28;20154;-69
2023/03/28 03:09:39;;;;;;;1999.90;999.90;;;-0.60;99.90;;;;;;5065659;28;20049;-69
2023/03/28 03:12:05;;;;;;;1999.90;999.90;;;-0.60;99.90;;;;;;5064692;28;20048;-69
2023/03/28 03:14:31;;;;;;;1999.90;999.90;;;-0.60;99.90;;;;;;5049622;28;20493;-69
2023/03/28 03:16:57;;;;;;;1999.90;999.90;;;-0.60;99.90;;;;;;5064861;28;20060;-69
2023/03/28 03:19:22;;;;;;;1999.90;999.90;;;-0.60;99.90;;;;;;5065482;28;20115;-69
2023/03/28 03:21:48;;;;;;;1999.90;999.90;;;-0.60;99.90;;;;;;5064000;28;20061;-69
2023/03/28 03:24:15;;;;;;;1999.90;999.90;;;-0.70;99.90;;;;;;5064539;28;20537;-69
2023/03/28 03:26:40;;;;;;;1999.90;999.90;;;-0.70;99.90;;;;;;5062732;28;20080;-69
2023/03/28 03:29:06;;;;;;;1999.90;999.90;;;-0.70;99.90;;;;;;5048714;28;20079;-69
2023/03/28 03:31:32;;;;;;;1999.90;999.90;;;-0.70;99.90;;;;;;5048175;28;20064;-69
2023/03/28 03:33:58;;;;;;;1999.90;999.90;;;-0.80;99.90;;;;;;5063663;28;20056;-69
2023/03/28 03:36:25;;;;;;;1999.90;999.90;;;-0.80;99.90;;;;;;5065070;28;20032;-69
2023/03/28 03:38:51;;;;;;;1999.90;999.90;;;-0.80;99.90;;;;;;5062378;28;20043;-69
2023/03/28 03:41:17;;;;;;;1999.90;999.90;;;-0.80;99.90;;;;;;5065297;28;20049;-69
2023/03/28 03:43:43;;;;;;;1999.90;999.90;;;-0.90;99.90;;;;;;5048555;28;20496;-69
2023/03/28 03:46:08;;;;;;;1999.90;999.90;;;-0.90;99.90;;;;;;5048198;28;20123;-69
2023/03/28 03:48:34;;;;;;;1999.90;999.90;;;-0.90;99.90;;;;;;5079859;28;20542;-69
2023/03/28 03:50:59;;;;;;;1999.90;999.90;;;-0.90;99.90;;;;;;5048343;28;20036;-69
2023/03/28 03:53:25;;;;;;;1999.90;999.90;;;-0.90;99.90;;;;;;5064721;28;20068;-69
2023/03/28 03:55:51;;;;;;;1999.90;999.90;;;-0.90;99.90;;;;;;5046260;28;20033;-69
2023/03/28 03:58:17;;;;;;;1999.90;999.90;;;-0.90;99.90;;;;;;5064741;28;20498;-69
2023/03/28 04:00:45;;;;;;;1999.90;999.90;;;-0.90;99.90;;;;;;5063541;28;20045;-69
2023/03/28 04:03:11;;;;;;;1999.90;999.90;;;-0.90;99.90;;;;;;5063117;28;20122;-69
2023/03/28 04:05:36;;;;;;;1999.90;999.90;;;-1.00;99.90;;;;;;5046814;28;20554;-69
2023/03/28 04:08:02;;;;;;;1999.90;999.90;;;-1.00;99.90;;;;;;5064450;28;20067;-69
2023/03/28 04:10:28;;;;;;;1999.90;999.90;;;-1.00;99.90;;;;;;5065662;28;20043;-69
2023/03/28 04:12:53;;;;;;;1999.90;999.90;;;-1.00;99.90;;;;;;5067491;28;20128;-69
2023/03/28 04:15:19;;;;;;;1999.90;999.90;;;-1.00;99.90;;;;;;5048657;28;20036;-69
2023/03/28 04:17:44;;;;;;;1999.90;999.90;;;-1.00;99.90;;;;;;5064382;28;20040;-69
2023/03/28 04:20:10;;;;;;;1999.90;999.90;;;-0.90;99.90;;;;;;5061987;28;20090;-69
2023/03/28 04:22:36;;;;;;;1999.90;999.90;;;-0.90;99.90;;;;;;5062157;28;20501;-69
2023/03/28 04:25:03;;;;;;;1999.90;999.90;;;-0.90;99.90;;;;;;5065058;28;20032;-69
2023/03/28 04:27:30;;;;;;;1999.90;999.90;;;-0.90;99.90;;;;;;5047230;28;20392;-69
2023/03/28 04:29:56;;;;;;;1999.90;999.90;;;-0.90;99.90;;;;;;5062977;28;20087;-69
2023/03/28 04:32:23;;;;;;;1999.90;999.90;;;-0.90;99.90;;;;;;5046049;28;20032;-69
2023/03/28 04:34:49;;;;;;;1999.90;999.90;;;-0.70;99.90;;;;;;5063319;28;20029;-70
2023/03/28 04:37:17;;;;;;;1999.90;999.90;;;-0.60;99.90;;;;;;5061787;28;20035;-69
2023/03/28 04:39:46;;;;;;;1999.90;999.90;;;-0.50;99.90;;;;;;5065027;28;20091;-70
2023/03/28 04:42:12;;;;;;;1999.90;999.90;;;-0.50;99.90;;;;;;5065098;28;20076;-70
2023/03/28 04:44:39;;;;;;;1999.90;999.90;;;-0.40;99.90;;;;;;5063324;28;20139;-69
2023/03/28 04:47:07;;;;;;;1999.90;999.90;;;-0.30;99.90;;;;;;5047792;28;20123;-69
2023/03/28 04:49:33;;;;;;;1999.90;999.90;;;-0.20;99.90;;;;;;5047382;28;20040;-69
2023/03/28 04:51:59;;;;;;;1999.90;999.90;;;-0.20;99.90;;;;;;5047025;28;20047;-69
2023/03/28 04:54:25;;;;;;;1999.90;999.90;;;-0.10;99.90;;;;;;5064924;28;20831;-69
2023/03/28 04:56:52;;;;;;;1999.90;999.90;;;-0.10;99.90;;;;;;5061741;28;20067;-69
2023/03/28 04:59:17;;;;;;;1999.90;999.90;;;-0.10;99.90;;;;;;5063029;28;20146;-70
2023/03/28 05:01:49;;;;;;;1999.90;999.90;;;0.00;99.90;;;;;;5062132;28;20122;-69
2023/03/28 05:04:16;;;;;;;1999.90;999.90;;;0.00;99.90;;;;;;5046575;28;20036;-69
2023/03/28 05:06:46;;;;;;;1999.90;999.90;;;0.10;99.90;;;;;;5047170;28;20422;-70
2023/03/28 05:09:13;;;;;;;1999.90;999.90;;;0.10;99.90;;;;;;5064699;28;20044;-70
2023/03/28 05:11:39;;;;;;;1999.90;999.90;;;0.20;99.90;;;;;;5064049;28;20082;-70
2023/03/28 05:14:05;;;;;;;1999.90;999.90;;;0.30;99.90;;;;;;5065537;28;20032;-69
2023/03/28 05:16:30;;;;;;;1999.90;999.90;;;0.30;99.90;;;;;;5066916;28;20044;-69
2023/03/28 05:18:57;;;;;;;1999.90;999.90;;;0.40;99.90;;;;;;5065463;28;20623;-70
2023/03/28 05:21:22;;;;;;;1999.90;999.90;;;0.40;99.90;;;;;;5061166;28;20052;-69
2023/03/28 05:23:48;;;;;;;1999.90;999.90;;;0.40;99.90;;;;;;5067863;28;20032;-69
2023/03/28 05:26:14;;;;;;;1999.90;999.90;;;0.50;99.90;;;;;;5062331;28;20485;-70
2023/03/28 05:28:40;;;;;;;1999.90;999.90;;;0.50;99.90;;;;;;5064746;28;20048;-69
2023/03/28 05:31:07;;;;;;;1999.90;999.90;;;0.60;99.90;;;;;;5065517;28;20037;-70
2023/03/28 05:33:33;;;;;;;1999.90;999.90;;;0.70;99.90;;;;;;5065559;28;20387;-70
2023/03/28 05:36:00;;;;;;;1999.90;999.90;;;0.80;99.90;;;;;;5068694;28;20182;-69
2023/03/28 05:38:26;;;;;;;1999.90;999.90;;;0.90;99.90;;;;;;5066209;28;20513;-70
2023/03/28 05:40:52;;;;;;;1999.90;999.90;;;1.00;99.90;;;;;;5066758;28;20105;-70
2023/03/28 05:43:18;;;;;;;1999.90;999.90;;;1.00;99.90;;;;;;5066073;28;20058;-70
2023/03/28 05:45:46;;;;;;;1999.90;999.90;;;1.00;99.90;;;;;;5065923;28;20051;-70
2023/03/28 05:48:11;;;;;;;1999.90;999.90;;;1.00;99.90;;;;;;5081500;28;20044;-70
2023/03/28 05:50:37;;;;;;;1999.90;999.90;;;1.00;99.90;;;;;;5062388;28;20044;-69
2023/03/28 05:53:03;;;;;;;1999.90;999.90;;;1.00;99.90;;;;;;5051007;28;20032;-70
2023/03/28 05:55:28;;;;;;;1999.90;999.90;;;1.00;99.90;;;;;;5050617;28;20048;-70
2023/03/28 05:57:54;;;;;;;1999.90;999.90;;;1.00;99.90;;;;;;5050323;28;20052;-70
2023/03/28 06:00:22;;;;;;;1999.90;999.90;;;1.00;99.90;;;;;;5064647;28;20044;-70
2023/03/28 06:02:50;;;;;;;1999.90;999.90;;;1.10;99.90;;;;;;5050245;28;20085;-70
2023/03/28 06:05:17;;;;;;;1999.90;999.90;;;1.20;99.90;;;;;;5067289;28;20056;-70
2023/03/28 06:07:42;;;;;;;1999.90;999.90;;;1.20;99.90;;;;;;5068983;28;20463;-70
2023/03/28 06:10:10;;;;;;;1999.90;999.90;;;1.30;99.90;;;;;;5048796;28;20481;-70
2023/03/28 06:12:36;;;;;;;1999.90;999.90;;;1.40;99.90;;;;;;5065225;28;20086;-70
2023/03/28 06:15:03;;;;;;;1999.90;999.90;;;1.50;99.90;;;;;;5066838;28;20473;-70
2023/03/28 06:17:29;;;;;;;1999.90;999.90;;;1.60;99.90;;;;;;5064858;28;20068;-70
2023/03/28 06:19:55;;;;;;;1999.90;999.90;;;1.70;99.90;;;;;;5048825;28;20074;-70
2023/03/28 06:22:20;;;;;;;1999.90;999.90;;;1.80;99.90;;;;;;5064569;28;20076;-70
2023/03/28 06:24:46;;;;;;;1999.90;999.90;;;1.90;99.90;;;;;;5049334;28;20519;-70
2023/03/28 06:27:11;;;;;;;1999.90;999.90;;;2.00;99.90;;;;;;5067329;28;20066;-70
2023/03/28 06:29:37;;;;;;;1999.90;999.90;;;2.10;99.90;;;;;;5064125;28;20072;-70
2023/03/28 06:32:03;;;;;;;1999.90;999.90;;;2.20;99.90;;;;;;5047833;28;20032;-70
2023/03/28 06:34:28;;;;;;;1999.90;999.90;;;2.30;99.90;;;;;;5066966;28;20028;-70
2023/03/28 06:36:54;;;;;;;1999.90;999.90;;;2.40;99.90;;;;;;5046596;28;20114;-70
2023/03/28 06:39:20;;;;;;;1999.90;999.90;;;2.50;99.90;;;;;;5065763;28;20441;-70
2023/03/28 06:41:45;;;;;;;1999.90;999.90;;;2.60;99.90;;;;;;5062150;28;20033;-70
2023/03/28 06:44:11;;;;;;;1999.90;999.90;;;2.70;99.90;;;;;;5049863;28;20044;-70
2023/03/28 06:46:37;;;;;;;1999.90;999.90;;;2.80;99.90;;;;;;5068517;28;20044;-70
2023/03/28 06:49:03;;;;;;;1999.90;999.90;;;2.90;99.90;;;;;;5065468;28;20048;-70
2023/03/28 06:51:29;;;;;;;1999.90;999.90;;;3.00;99.90;;;;;;5065554;28;20047;-70
2023/03/28 06:53:54;;;;;;;1999.90;999.90;;;3.10;99.90;;;;;;5059914;28;20028;-71
2023/03/28 06:56:20;;;;;;;1999.90;999.90;;;3.10;99.90;;;;;;5066347;28;20037;-70
2023/03/28 06:58:46;;;;;;;1999.90;999.90;;;3.20;99.90;;;;;;5064510;28;20033;-70
2023/03/28 07:01:11;;;;;;;1999.90;999.90;;;3.20;99.90;;;;;;5049378;28;20409;-71
2023/03/28 07:03:37;;;;;;;1999.90;999.90;;;3.20;99.90;;;;;;5063536;28;20036;-70
2023/03/28 07:06:05;;;;;;;1999.90;999.90;;;3.20;99.90;;;;;;5065221;28;20040;-71
2023/03/28 07:08:31;;;;;;;1999.90;999.90;;;3.20;99.90;;;;;;5065460;28;20036;-70
2023/03/28 07:10:57;;;;;;;1999.90;999.90;;;3.30;99.90;;;;;;5067292;28;20047;-70
2023/03/28 07:13:22;;;;;;;1999.90;999.90;;;3.30;99.90;;;;;;5063025;28;20029;-70
2023/03/28 07:16:05;;;;;;;1999.90;999.90;;;3.40;99.90;;;;;;5064133;28;20033;-70
2023/03/28 07:18:32;;;;;;;1999.90;999.90;;;3.50;99.90;;;;;;5065820;28;20583;-70
2023/03/28 07:20:57;;;;;;;1999.90;999.90;;;3.80;99.90;;;;;;5064412;28;20060;-70
2023/03/28 07:23:23;;;;;;;1999.90;999.90;;;4.00;99.90;;;;;;5064380;28;20051;-70
2023/03/28 07:25:49;;;;;;;1999.90;999.90;;;4.20;99.90;;;;;;5063597;28;20040;-70
2023/03/28 07:28:15;;;;;;;1999.90;999.90;;;4.30;99.90;;;;;;5064722;28;20052;-70
2023/03/28 07:30:41;;;;;;;1999.90;999.90;;;4.40;99.90;;;;;;5046737;28;20094;-70
2023/03/28 07:33:06;;;;;;;1999.90;999.90;;;4.50;99.90;;;;;;5049186;28;20043;-70
2023/03/28 07:35:32;;;;;;;1999.90;999.90;;;4.70;99.90;;;;;;5065379;28;20037;-71
2023/03/28 07:37:58;;;;;;;1999.90;999.90;;;5.00;99.90;;;;;;5064313;28;20029;-70
2023/03/28 07:40:23;;;;;;;1999.90;999.90;;;5.20;99.90;;;;;;5063679;28;20492;-71
2023/03/28 07:42:49;;;;;;;1999.90;999.90;;;5.30;99.90;;;;;;5064844;28;20127;-71
2023/03/28 07:45:15;;;;;;;1999.90;999.90;;;5.40;99.90;;;;;;5049065;28;20052;-71
2023/03/28 07:47:41;;;;;;;1999.90;999.90;;;5.50;99.90;;;;;;5060518;28;20408;-71
2023/03/28 07:50:07;;;;;;;1999.90;999.90;;;5.70;99.90;;;;;;5064860;28;20039;-71
2023/03/28 07:52:33;;;;;;;1999.90;999.90;;;5.90;99.90;;;;;;5063714;28;20105;-71
2023/03/28 07:54:59;;;;;;;1999.90;999.90;;;6.20;99.90;;;;;;5045456;28;20327;-71
2023/03/28 07:57:25;;;;;;;1999.90;999.90;;;6.60;99.90;;;;;;5050200;28;20074;-71
2023/03/28 07:59:51;;;;;;;1999.90;999.90;;;6.80;99.90;;;;;;5045337;28;20044;-71
2023/03/28 08:02:17;;;;;;;1999.90;999.90;;;7.00;99.90;;;;;;5060139;28;20169;-71
2023/03/28 08:04:42;;;;;;;1999.90;999.90;;;7.00;99.90;;;;;;5064252;28;20070;-71
2023/03/28 08:07:09;;;;;;;1999.90;999.90;;;7.00;99.90;;;;;;5058853;28;20040;-71
2023/03/28 08:09:35;;;;;;;1999.90;999.90;;;6.90;99.90;;;;;;5062881;28;20101;-71
2023/03/28 08:12:01;;;;;;;1999.90;999.90;;;7.00;99.90;;;;;;5059459;28;20036;-71
2023/03/28 08:14:27;;;;;;;1999.90;999.90;;;7.10;99.90;;;;;;5056690;28;20181;-71
2023/03/28 08:16:52;;;;;;;1999.90;999.90;;;7.20;99.90;;;;;;5043129;28;20102;-71
2023/03/28 08:19:18;;;;;;;1999.90;999.90;;;7.20;99.90;;;;;;5046414;28;20036;-71
2023/03/28 08:21:44;;;;;;;1999.90;999.90;;;7.10;99.90;;;;;;5044765;28;20137;-71
2023/03/28 08:24:10;;;;;;;1999.90;999.90;;;7.10;99.90;;;;;;5062385;28;20549;-71
2023/03/28 08:26:37;;;;;;;1999.90;999.90;;;7.00;99.90;;;;;;5061152;28;20041;-71
2023/03/28 08:29:03;;;;;;;1999.90;999.90;;;6.90;99.90;;;;;;5061464;28;20039;-71
2023/03/28 08:31:29;;;;;;;1999.90;999.90;;;6.90;99.90;;;;;;5043358;28;20090;-71
2023/03/28 08:33:56;;;;;;;1999.90;999.90;;;6.90;99.90;;;;;;5047089;28;20416;-71
2023/03/28 08:36:24;;;;;;;1999.90;999.90;;;7.00;99.90;;;;;;5062761;28;20409;-69
2023/03/28 08:38:53;;;;;;;1999.90;999.90;;;7.20;99.90;;;;;;5044229;28;20055;-69
2023/03/28 08:41:27;;;;;;;1999.90;999.90;;;7.30;99.90;;;;;;5061920;28;20109;-69
2023/03/28 08:44:05;;;;;;;;;;;7.40;99.90;;;;;;5047492;28;20515;-69
2023/03/28 08:46:34;;;;;;;1999.90;999.90;;;7.40;99.90;;;;;;5044945;28;19920;-70
2023/03/28 08:49:09;;;;;;;1999.90;999.90;;;7.40;99.90;;;;;;5064587;28;20412;-70
2023/03/28 08:51:41;;;;;;;1999.90;999.90;;;7.60;99.90;;;;;;5068278;28;20083;-69
2023/03/28 08:54:42;;;;;;;1999.90;999.90;;;7.70;99.90;;;;;;5067992;28;20106;-70
2023/03/28 08:57:16;;;;;;;1999.90;999.90;;;8.10;99.90;;;;;;4965086;28;20486;-69
2023/03/28 08:59:52;;;;;;;1999.90;999.90;;;8.30;99.90;;;;;;5064719;28;20384;-69
2023/03/28 09:02:25;;;;;;;1999.90;999.90;;;8.70;99.90;;;;;;5061807;28;20051;-70
2023/03/28 09:04:51;;;;;;;1999.90;999.90;;;9.20;99.90;;;;;;5049382;28;20397;-70
2023/03/28 09:07:38;;;;;;;1999.90;999.90;;;9.50;99.90;;;;;;5065256;28;20123;-70
2023/03/28 09:10:30;;;;;;;1999.90;999.90;;;9.80;99.90;;;;;;5050528;28;20512;-70
2023/03/28 09:13:28;;;;;;;1999.90;999.90;;;10.30;99.90;;;;;;5054435;28;20044;-70
2023/03/28 09:16:31;;;;;;;1999.90;999.90;;;10.30;99.90;;;;;;5049696;28;20082;-70
2023/03/28 09:19:29;;;;;;;1999.90;999.90;;;9.70;99.90;;;;;;5050018;28;20071;-70
2023/03/28 09:22:03;;;;;;;1999.90;999.90;;;9.20;99.90;;;;;;5057618;28;20451;-70
2023/03/28 09:24:29;;;;;;;;;;;8.80;99.90;;;;;;5049854;28;20488;-71
2023/03/28 09:27:17;;;;;;;1999.90;999.90;;;8.70;99.90;;;;;;5050466;28;20053;-70
2023/03/28 09:29:44;;;;;;;1999.90;999.90;;;8.40;99.80;;;;;;5067500;28;20284;-70
2023/03/28 09:32:33;;;;;;;1999.90;999.90;;;8.30;99.60;;;;;;5050533;28;20439;-70
2023/03/28 09:34:59;;;;;;;1999.90;999.90;;;8.20;98.90;;;;;;5068746;28;20062;-70
2023/03/28 09:37:40;;;;;;;1999.90;999.90;;;8.20;99.90;;;;;;5042233;28;20037;-70
2023/03/28 09:40:20;;;;;;;1999.90;999.90;;;8.10;97.70;;;;;;5065586;28;20033;-70
2023/03/28 09:43:03;;;;;;;1999.90;999.90;;;8.10;98.30;;;;;;5066261;28;20036;-70
2023/03/28 09:45:35;;;;;;;1999.90;999.90;;;8.20;98.90;;;;;;5060439;28;20542;-70
2023/03/28 09:48:03;;;;;;;1999.90;999.90;;;8.30;99.00;;;;;;5065274;28;20527;-70
2023/03/28 09:50:29;;;;;;;1999.90;999.90;;;8.20;98.10;;;;;;5065115;28;20045;-70
2023/03/28 09:52:56;;;;;;;1999.90;999.90;;;8.10;97.70;;;;;;5050970;28;20048;-70
2023/03/28 09:55:29;;;;;;;1999.90;999.90;;;7.90;98.30;;;;;;5065576;28;20032;-70
2023/03/28 09:58:08;;;;;;;1999.90;999.90;;;7.80;98.30;;;;;;5050758;28;20043;-70
2023/03/28 10:00:42;;;;;;;1999.90;999.90;;;7.80;98.40;;;;;;5059715;28;20041;-70
2023/03/28 10:03:28;;;;;;;1999.90;999.90;;;7.70;99.00;;;;;;5065890;28;20451;-70
2023/03/28 10:05:58;;;;;;;1999.90;999.90;;;7.60;99.80;;;;;;5037973;28;20047;-70
2023/03/28 10:08:35;;;;;;;1999.90;999.90;;;7.70;99.10;;;;;;5067554;28;20405;-70
2023/03/28 10:11:13;;;;;;;1999.90;999.90;;;7.80;98.30;;;;;;5065353;28;20487;-70
2023/03/28 10:13:41;;;;;;;1999.90;999.90;;;7.90;98.40;;;;;;5049833;28;20052;-70
2023/03/28 10:16:09;;;;;;;1999.90;999.90;;;8.30;99.40;;;;;;5066001;28;20040;-70
2023/03/28 10:18:37;;;;;;;1999.90;999.90;;;8.60;97.40;;;;;;5062790;28;20115;-70
2023/03/28 10:21:13;;;;;;;1999.90;999.90;;;8.70;98.20;;;;;;5065782;28;20055;-70
2023/03/28 10:24:00;;;;;;;1999.90;999.90;;;8.70;98.60;;;;;;5040903;28;20056;-70
2023/03/28 10:26:27;;;;;;;1999.90;999.90;;;8.60;98.40;;;;;;5065540;28;20423;-70
2023/03/28 10:28:56;;;;;;;1999.90;999.90;;;8.90;98.60;;;;;;5066925;28;20185;-70
2023/03/28 10:31:28;;;;;;;1999.90;999.90;;;9.00;98.60;;;;;;5064665;28;20438;-70
2023/03/28 10:33:56;;;;;;;1999.90;999.90;;;9.30;97.80;;;;;;5062295;28;20036;-70
2023/03/28 10:36:33;;;;;;;1999.90;999.90;;;9.40;96.80;;;;;;5064494;28;20388;-70
2023/03/28 10:39:11;;;;;;;1999.90;999.90;;;9.40;96.70;;;;;;5063976;28;20055;-70
2023/03/28 10:41:51;;;;;;;1999.90;999.90;;;9.20;96.20;;;;;;5056671;28;20440;-70
2023/03/28 10:44:24;;;;;;;1999.90;999.90;;;8.90;96.60;;;;;;5047625;28;20474;-70
2023/03/28 10:46:51;;;;;;;1999.90;999.90;;;8.80;97.00;;;;;;5059521;28;20575;-70
2023/03/28 10:49:19;;;;;;;1999.90;999.90;;;8.60;97.80;;;;;;5062261;28;20068;-70
2023/03/28 10:51:45;;;;;;;1999.90;999.90;;;8.50;98.30;;;;;;5063837;28;20388;-69
2023/03/28 10:54:30;;;;;;;1999.90;999.90;;;8.50;98.90;;;;;;5028057;28;20155;-70
2023/03/28 10:57:01;;;;;;;1999.90;999.90;;;8.50;98.40;;;;;;5064375;28;20040;-70
2023/03/28 11:00:05;;;;;;;1999.90;999.90;;;8.50;99.10;;;;;;5057567;28;20048;-70
2023/03/28 11:02:57;;;;;;;1999.90;999.90;;;8.60;99.30;;;;;;4979525;28;20545;-69
2023/03/28 11:05:40;;;;;;;1999.90;999.90;;;8.70;97.80;;;;;;5003294;28;20064;-68
2023/03/28 11:08:28;;;;;;;1999.90;999.90;;;8.80;97.90;;;;;;4970140;28;20042;-69
2023/03/28 11:11:19;;;;;;;1999.90;999.90;;;8.90;98.60;;;;;;4982101;28;20395;-69
2023/03/28 11:13:53;;;;;;;1999.90;999.90;;;9.00;97.80;;;;;;4983772;28;20038;-69
2023/03/28 11:16:55;;;;;;;1999.90;999.90;;;9.10;97.40;;;;;;4983344;28;20057;-69
2023/03/28 11:19:35;;;;;;;1999.90;999.90;;;9.30;98.10;;;;;;4980464;28;20180;-69
2023/03/28 11:22:32;;;;;;;1999.90;999.90;;;9.50;97.60;;;;;;4976579;28;20077;-69
2023/03/28 11:25:26;;;;;;;1999.90;999.90;;;9.80;97.50;;;;;;4985813;28;20046;-69
2023/03/28 11:28:13;;;;;;;1999.90;999.90;;;10.20;96.50;;;;;;4997954;28;20050;-69
2023/03/28 11:30:41;;;;;;;1999.90;999.90;;;10.40;96.80;;;;;;4978832;28;20054;-69
2023/03/28 11:33:13;;;;;;;1999.90;999.90;;;10.50;96.20;;;;;;4992794;28;20046;-69
2023/03/28 11:35:51;;;;;;;1999.90;999.90;;;10.70;96.70;;;;;;4984325;28;20401;-69
2023/03/28 11:38:32;;;;;;;1999.90;999.90;;;10.70;94.50;;;;;;5049147;28;20033;-69
2023/03/28 11:41:17;;;;;;;1999.90;999.90;;;10.60;94.30;;;;;;5047698;28;20392;-69
2023/03/28 11:43:58;;;;;;;1999.90;999.90;;;10.30;94.60;;;;;;5054886;28;20060;-69
2023/03/28 11:46:53;;;;;;;1999.90;999.90;;;10.00;94.40;;;;;;5049580;28;20056;-69
2023/03/28 11:49:50;;;;;;;1999.90;999.90;;;9.70;94.80;;;;;;5030099;28;20571;-69
2023/03/28 11:52:30;;;;;;;1999.90;999.90;;;9.60;96.10;;;;;;5052254;28;20416;-69
2023/03/28 11:55:04;;;;;;;1999.90;999.90;;;9.60;95.80;;;;;;5055410;28;20507;-68
2023/03/28 11:57:55;;;;;;;1999.90;999.90;;;9.70;94.80;;;;;;5053029;28;20165;-70
2023/03/28 12:00:21;;;;;;;1999.90;999.90;;;9.80;95.90;;;;;;5053708;28;20040;-70
2023/03/28 12:02:55;;;;;;;1999.90;999.90;;;9.90;94.50;;;;;;5055582;28;20051;-69
2023/03/28 12:05:29;;;;;;;;;;;9.90;95.50;;;;;;5050026;28;20040;-69
2023/03/28 12:08:14;;;;;;;1999.90;999.90;;;10.10;95.50;;;;;;5053622;28;19920;-70
2023/03/28 12:10:42;;;;;;;1999.90;999.90;;;10.10;96.20;;;;;;5027625;28;20562;-70
2023/03/28 12:13:17;;;;;;;1999.90;999.90;;;10.10;95.80;;;;;;5040299;28;20123;-70
2023/03/28 12:15:59;;;;;;;1999.90;999.90;;;10.10;96.10;;;;;;5047890;28;20037;-70
2023/03/28 12:18:40;;;;;;;1999.90;999.90;;;10.10;94.30;;;;;;5047132;28;20044;-70
2023/03/28 12:21:48;;;;;;;1999.90;999.90;;;10.20;94.70;;;;;;5050289;28;20436;-69
2023/03/28 12:24:54;;;;;;;1999.90;999.90;;;10.30;94.70;;;;;;5028386;28;20131;-70
2023/03/28 12:27:42;;;;;;;1999.90;999.90;;;10.50;94.30;;;;;;5054574;28;20106;-70
2023/03/28 12:30:23;;;;;;;1999.90;999.90;;;10.70;94.00;;;;;;5052780;28;20823;-70
2023/03/28 12:33:20;;;;;;;1999.90;999.90;;;10.90;93.70;;;;;;5050512;28;20496;-70